createdAt,value
2019-01-13T00:00:16.057Z,7.00
2019-01-13T00:02:44.827Z,7.00
2019-01-13T00:21:12.319Z,7.00
2019-01-13T00:23:40.940Z,7.00
2019-01-13T00:26:09.599Z,7.00
2019-01-13T00:28:38.226Z,7.10
2019-01-13T00:31:09.840Z,7.00
2019-01-13T00:33:38.495Z,7.00
2019-01-13T00:36:07.120Z,7.10
2019-01-13T00:38:35.708Z,7.10
2019-01-13T00:41:04.413Z,7.10
2019-01-13T00:43:33.065Z,7.10
2019-01-13T00:46:01.726Z,7.10
2019-01-13T00:48:30.544Z,7.10
2019-01-13T00:50:59.235Z,7.10
2019-01-13T00:53:27.852Z,7.20
2019-01-13T00:55:56.445Z,7.20
2019-01-13T00:58:25.133Z,7.10
2019-01-13T01:00:54.022Z,7.10
2019-01-13T01:03:22.678Z,7.10
2019-01-13T01:05:51.372Z,7.10
2019-01-13T01:08:20.341Z,7.10
2019-01-13T01:10:48.989Z,7.00
2019-01-13T01:13:17.754Z,7.00
2019-01-13T01:15:46.341Z,7.00
2019-01-13T01:18:14.972Z,7.00
2019-01-13T01:20:43.671Z,7.00
2019-01-13T01:23:12.398Z,7.10
2019-01-13T01:25:41.093Z,7.10
2019-01-13T01:28:09.749Z,7.00
2019-01-13T01:30:38.441Z,7.00
2019-01-13T01:33:07.092Z,7.00
2019-01-13T01:35:35.710Z,7.00
2019-01-13T01:38:04.437Z,7.00
2019-01-13T01:40:33.070Z,7.00
2019-01-13T01:43:01.663Z,7.00
2019-01-13T01:45:30.347Z,7.00
2019-01-13T01:47:59.106Z,7.00
2019-01-13T01:50:27.733Z,7.00
2019-01-13T01:52:56.393Z,7.10
2019-01-13T01:55:25.017Z,7.10
2019-01-13T01:57:53.676Z,7.10
2019-01-13T02:00:23.097Z,7.10
2019-01-13T02:02:51.860Z,7.10
2019-01-13T02:05:20.586Z,7.10
2019-01-13T02:07:49.390Z,7.00
2019-01-13T02:10:19.411Z,7.00
2019-01-13T02:12:48.227Z,7.10
2019-01-13T02:15:22.873Z,7.10
2019-01-13T02:17:51.797Z,7.10
2019-01-13T02:20:21.357Z,7.10
2019-01-13T02:22:50.182Z,7.10
2019-01-13T02:25:21.650Z,7.20
2019-01-13T02:27:50.714Z,7.20
2019-01-13T02:30:24.288Z,7.10
2019-01-13T02:32:53.346Z,7.20
2019-01-13T02:35:21.998Z,7.20
2019-01-13T02:37:50.771Z,7.20
2019-01-13T02:40:21.561Z,7.20
2019-01-13T02:42:50.534Z,7.20
2019-01-13T02:45:21.814Z,7.20
2019-01-13T02:47:50.530Z,7.20
2019-01-13T02:50:19.220Z,7.20
2019-01-13T02:52:47.854Z,7.20
2019-01-13T02:55:16.549Z,7.20
2019-01-13T02:57:45.308Z,7.20
2019-01-13T03:00:19.269Z,7.20
2019-01-13T03:02:47.895Z,7.20
2019-01-13T03:05:16.919Z,7.20
2019-01-13T03:07:45.678Z,7.30
2019-01-13T03:10:16.921Z,7.30
2019-01-13T03:12:45.774Z,7.30
2019-01-13T03:15:19.675Z,7.30
2019-01-13T03:17:48.949Z,7.30
2019-01-13T03:20:17.703Z,7.30
2019-01-13T03:22:46.398Z,7.30
2019-01-13T03:25:17.722Z,7.30
2019-01-13T03:27:46.418Z,7.30
2019-01-13T03:30:17.545Z,7.30
2019-01-13T03:32:46.262Z,7.30
2019-01-13T03:35:15.123Z,7.30
2019-01-13T03:37:44.051Z,7.30
2019-01-13T03:40:18.437Z,7.30
2019-01-13T03:42:47.557Z,7.30
2019-01-13T03:45:16.511Z,7.30
2019-01-13T03:47:45.094Z,7.40
2019-01-13T03:50:19.476Z,7.30
2019-01-13T03:52:53.209Z,7.30
2019-01-13T03:55:20.314Z,7.30
2019-01-13T03:57:49.011Z,7.30
2019-01-13T04:00:22.762Z,7.30
2019-01-13T04:02:51.725Z,7.30
2019-01-13T04:05:20.481Z,7.30
2019-01-13T04:07:49.253Z,7.30
2019-01-13T04:10:18.280Z,7.40
2019-01-13T04:12:46.999Z,7.30
2019-01-13T04:15:27.575Z,7.30
2019-01-13T04:17:58.229Z,7.30
2019-01-13T04:20:26.891Z,7.30
2019-01-13T04:22:55.588Z,7.30
2019-01-13T04:25:24.305Z,7.40
2019-01-13T04:27:52.996Z,7.40
2019-01-13T04:30:21.580Z,7.40
2019-01-13T04:32:50.208Z,7.40
2019-01-13T04:35:18.794Z,7.40
2019-01-13T04:37:47.410Z,7.40
2019-01-13T04:40:16.038Z,7.40
2019-01-13T04:42:44.619Z,7.50
2019-01-13T04:45:13.386Z,7.50
2019-01-13T04:47:41.970Z,7.50
2019-01-13T04:50:13.202Z,7.50
2019-01-13T04:52:41.838Z,7.50
2019-01-13T04:55:10.603Z,7.50
2019-01-13T04:57:39.217Z,7.50
2019-01-13T05:00:13.714Z,7.50
2019-01-13T05:02:42.506Z,7.50
2019-01-13T05:05:11.225Z,7.50
2019-01-13T05:07:39.880Z,7.50
2019-01-13T05:10:11.716Z,7.50
2019-01-13T05:12:40.364Z,7.50
2019-01-13T05:15:09.635Z,7.50
2019-01-13T05:17:38.890Z,7.50
2019-01-13T05:20:10.753Z,7.50
2019-01-13T05:22:39.344Z,7.50
2019-01-13T05:25:08.599Z,7.50
2019-01-13T05:27:37.249Z,7.50
2019-01-13T05:30:20.379Z,7.60
2019-01-13T05:32:49.348Z,7.60
2019-01-13T05:35:18.171Z,7.50
2019-01-13T05:37:46.825Z,7.60
2019-01-13T05:40:17.499Z,7.60
2019-01-13T05:42:46.329Z,7.60
2019-01-13T05:45:17.146Z,7.60
2019-01-13T05:47:46.310Z,7.60
2019-01-13T05:50:16.337Z,7.60
2019-01-13T05:52:46.168Z,7.60
2019-01-13T05:55:14.898Z,7.60
2019-01-13T05:57:43.705Z,7.60
2019-01-13T06:00:21.000Z,7.70
2019-01-13T06:02:49.693Z,7.70
2019-01-13T06:05:18.463Z,7.70
2019-01-13T06:07:47.185Z,7.70
2019-01-13T06:10:17.967Z,7.70
2019-01-13T06:12:46.625Z,7.70
2019-01-13T06:15:17.652Z,7.70
2019-01-13T06:17:46.344Z,7.70
2019-01-13T06:20:19.840Z,7.80
2019-01-13T06:22:48.545Z,7.70
2019-01-13T06:25:17.203Z,7.80
2019-01-13T06:27:46.157Z,7.70
2019-01-13T06:30:17.179Z,7.80
2019-01-13T06:32:45.951Z,7.80
2019-01-13T06:35:14.608Z,7.80
2019-01-13T06:37:43.301Z,7.80
2019-01-13T06:40:14.370Z,7.80
2019-01-13T06:42:43.090Z,7.80
2019-01-13T06:45:20.387Z,7.80
2019-01-13T06:47:49.037Z,7.80
2019-01-13T06:50:17.728Z,7.90
2019-01-13T06:52:46.390Z,7.80
2019-01-13T06:55:15.152Z,7.80
2019-01-13T06:57:43.873Z,7.90
2019-01-13T07:00:23.979Z,7.90
2019-01-13T07:02:52.746Z,7.80
2019-01-13T07:05:21.544Z,7.90
2019-01-13T07:07:50.197Z,7.90
2019-01-13T07:10:18.963Z,7.90
2019-01-13T07:12:47.719Z,7.90
2019-01-13T07:15:18.350Z,7.90
2019-01-13T07:17:47.117Z,7.90
2019-01-13T07:20:18.412Z,7.90
2019-01-13T07:22:47.488Z,7.90
2019-01-13T07:25:16.098Z,7.90
2019-01-13T07:27:44.816Z,8.00
2019-01-13T07:30:18.275Z,8.00
2019-01-13T07:32:47.042Z,8.00
2019-01-13T07:35:15.698Z,8.00
2019-01-13T07:37:44.560Z,8.00
2019-01-13T07:40:17.067Z,8.00
2019-01-13T07:42:45.648Z,8.00
2019-01-13T07:45:16.600Z,8.00
2019-01-13T07:47:45.390Z,8.00
2019-01-13T07:50:16.252Z,8.10
2019-01-13T07:52:45.618Z,8.10
2019-01-13T07:55:16.336Z,8.10
2019-01-13T07:57:45.051Z,8.10
2019-01-13T08:00:16.762Z,8.10
2019-01-13T08:02:45.411Z,8.20
2019-01-13T08:05:14.130Z,8.20
2019-01-13T08:07:42.881Z,8.20
2019-01-13T08:10:14.041Z,8.20
2019-01-13T08:12:42.988Z,8.20
2019-01-13T08:15:20.198Z,8.30
2019-01-13T08:17:48.878Z,8.30
2019-01-13T08:20:23.534Z,8.30
2019-01-13T08:22:52.295Z,8.30
2019-01-13T08:25:21.063Z,8.30
2019-01-13T08:27:49.708Z,8.40
2019-01-13T08:30:20.098Z,8.40
2019-01-13T08:32:48.849Z,8.40
2019-01-13T08:35:17.618Z,8.40
2019-01-13T08:37:46.466Z,8.40
2019-01-13T08:40:17.439Z,8.40
2019-01-13T08:42:46.388Z,8.50
2019-01-13T08:45:15.100Z,8.50
2019-01-13T08:47:43.786Z,8.50
2019-01-13T08:50:15.567Z,8.50
2019-01-13T08:52:44.328Z,8.60
2019-01-13T08:55:13.126Z,8.60
2019-01-13T08:57:42.120Z,8.60
2019-01-13T09:00:25.738Z,8.60
2019-01-13T09:02:54.728Z,8.70
2019-01-13T09:05:23.614Z,8.70
2019-01-13T09:07:52.302Z,8.70
2019-01-13T09:10:21.117Z,8.80
2019-01-13T09:12:56.353Z,8.80
2019-01-13T09:15:22.242Z,8.80
2019-01-13T09:17:50.923Z,8.80
2019-01-13T09:20:21.836Z,8.80
2019-01-13T09:22:50.612Z,8.80
2019-01-13T09:25:19.572Z,8.90
2019-01-13T09:27:48.299Z,8.90
2019-01-13T09:30:25.128Z,8.90
2019-01-13T09:32:53.895Z,8.90
2019-01-13T09:35:22.816Z,8.90
2019-01-13T09:37:51.849Z,9.00
2019-01-13T09:40:23.732Z,9.00
2019-01-13T09:42:52.700Z,9.00
2019-01-13T09:45:21.484Z,8.90
2019-01-13T09:47:50.196Z,9.00
2019-01-13T09:50:20.850Z,9.00
2019-01-13T09:52:49.763Z,9.00
2019-01-13T09:55:20.428Z,9.00
2019-01-13T09:57:49.244Z,9.00
2019-01-13T10:00:26.446Z,8.90
2019-01-13T10:02:55.093Z,9.00
2019-01-13T10:05:23.800Z,9.00
2019-01-13T10:07:52.525Z,8.90
2019-01-13T10:10:21.265Z,9.00
2019-01-13T10:12:50.037Z,9.00
2019-01-13T10:15:23.873Z,9.00
2019-01-13T10:17:52.640Z,9.00
2019-01-13T10:20:21.365Z,9.00
2019-01-13T10:22:50.090Z,9.00
2019-01-13T10:25:19.048Z,9.00
2019-01-13T10:27:48.037Z,9.00
2019-01-13T10:30:22.326Z,9.00
2019-01-13T10:32:54.695Z,9.00
2019-01-13T10:35:21.858Z,9.00
2019-01-13T10:37:51.553Z,9.00
2019-01-13T10:40:26.281Z,9.00
2019-01-13T10:42:55.334Z,9.10
2019-01-13T10:45:24.046Z,9.10
2019-01-13T10:47:53.015Z,9.10
2019-01-13T10:50:24.437Z,9.10
2019-01-13T10:52:53.753Z,9.10
2019-01-13T10:55:22.462Z,9.10
2019-01-13T10:57:51.170Z,9.10
2019-01-13T11:00:28.168Z,9.20
2019-01-13T11:03:02.111Z,9.20
2019-01-13T11:05:27.095Z,9.30
2019-01-13T11:07:56.358Z,9.20
2019-01-13T11:10:25.011Z,9.20
2019-01-13T11:12:53.998Z,9.20
2019-01-13T11:15:22.762Z,9.20
2019-01-13T11:17:51.478Z,9.30
2019-01-13T11:20:22.930Z,9.30
2019-01-13T11:22:51.512Z,9.30
2019-01-13T11:25:20.424Z,9.30
2019-01-13T11:27:49.194Z,9.30
2019-01-13T11:30:20.108Z,9.30
2019-01-13T11:32:48.801Z,9.30
2019-01-13T11:35:17.445Z,9.30
2019-01-13T11:37:46.162Z,9.30
2019-01-13T11:40:18.236Z,9.30
2019-01-13T11:42:46.962Z,9.30
2019-01-13T11:45:16.628Z,9.30
2019-01-13T11:47:45.385Z,9.30
2019-01-13T11:50:19.237Z,9.30
2019-01-13T11:52:48.153Z,9.30
2019-01-13T11:55:17.707Z,9.30
2019-01-13T11:57:46.668Z,9.30
2019-01-13T12:00:30.043Z,9.30
2019-01-13T12:02:58.758Z,9.30
2019-01-13T12:05:27.336Z,9.30
2019-01-13T12:07:56.211Z,9.30
2019-01-13T12:10:25.026Z,9.30
2019-01-13T12:12:53.602Z,9.20
2019-01-13T12:15:22.965Z,9.20
2019-01-13T12:17:51.698Z,9.20
2019-01-13T12:20:22.558Z,9.20
2019-01-13T12:22:51.464Z,9.20
2019-01-13T12:25:21.766Z,9.20
2019-01-13T12:27:50.686Z,9.20
2019-01-13T12:30:22.414Z,9.20
2019-01-13T12:32:51.092Z,9.20
2019-01-13T12:35:19.685Z,9.20
2019-01-13T12:37:48.437Z,9.20
2019-01-13T12:40:22.241Z,9.20
2019-01-13T12:42:51.001Z,9.20
2019-01-13T12:45:21.514Z,9.20
2019-01-13T12:47:50.398Z,9.20
2019-01-13T12:50:21.583Z,9.20
2019-01-13T12:52:50.350Z,9.10
2019-01-13T12:55:19.025Z,9.10
2019-01-13T12:57:47.605Z,9.20
2019-01-13T13:00:18.166Z,9.10
2019-01-13T13:02:47.119Z,9.20
2019-01-13T13:05:16.652Z,9.20
2019-01-13T13:07:46.002Z,9.20
2019-01-13T13:10:20.145Z,9.20
2019-01-13T13:12:48.907Z,9.10
2019-01-13T13:15:17.688Z,9.20
2019-01-13T13:17:46.338Z,9.10
2019-01-13T13:20:16.388Z,9.10
2019-01-13T13:22:46.001Z,9.10
2019-01-13T13:25:15.179Z,9.10
2019-01-13T13:27:43.817Z,9.10
2019-01-13T13:30:21.516Z,9.10
2019-01-13T13:32:50.258Z,9.10
2019-01-13T13:35:19.021Z,9.10
2019-01-13T13:37:47.947Z,9.10
2019-01-13T13:40:19.877Z,9.10
2019-01-13T13:42:48.596Z,9.10
2019-01-13T13:45:17.350Z,9.10
2019-01-13T13:47:46.312Z,9.10
2019-01-13T13:50:17.895Z,9.10
2019-01-13T13:52:46.509Z,9.10
2019-01-13T13:55:15.154Z,9.10
2019-01-13T13:57:43.768Z,9.10
2019-01-13T14:00:18.203Z,9.10
2019-01-13T14:02:46.816Z,9.10
2019-01-13T14:05:15.569Z,9.00
2019-01-13T14:07:44.155Z,9.00
2019-01-13T14:10:16.089Z,9.00
2019-01-13T14:12:44.895Z,9.00
2019-01-13T14:15:13.678Z,9.00
2019-01-13T14:17:42.367Z,9.00
2019-01-13T14:20:16.810Z,9.00
2019-01-13T14:22:45.564Z,9.00
2019-01-13T14:25:14.386Z,9.00
2019-01-13T14:27:43.031Z,9.00
2019-01-13T14:30:14.883Z,9.00
2019-01-13T14:32:43.605Z,9.00
2019-01-13T14:35:12.362Z,9.00
2019-01-13T14:37:41.077Z,9.00
2019-01-13T14:40:15.517Z,9.00
2019-01-13T14:42:44.289Z,9.00
2019-01-13T14:45:18.922Z,9.10
2019-01-13T14:47:47.497Z,9.00
2019-01-13T14:50:21.559Z,9.10
2019-01-13T14:52:50.643Z,9.00
2019-01-13T14:55:19.430Z,9.10
2019-01-13T14:57:48.202Z,9.00
2019-01-13T15:00:24.928Z,9.00
2019-01-13T15:02:53.682Z,9.00
2019-01-13T15:05:22.503Z,9.00
2019-01-13T15:07:51.135Z,9.00
2019-01-13T15:10:21.900Z,9.00
2019-01-13T15:12:50.613Z,9.00
2019-01-13T15:15:19.492Z,9.00
2019-01-13T15:17:48.217Z,9.00
2019-01-13T15:20:18.954Z,9.00
2019-01-13T15:22:48.218Z,9.00
2019-01-13T15:25:19.906Z,9.00
2019-01-13T15:28:07.931Z,9.00
2019-01-13T15:30:36.581Z,9.00
2019-01-13T15:33:05.261Z,9.00
2019-01-13T15:35:35.218Z,9.00
2019-01-13T15:38:04.030Z,8.90
2019-01-13T15:40:33.116Z,8.90
2019-01-13T15:43:01.796Z,9.00
2019-01-13T15:45:30.851Z,9.00
2019-01-13T15:47:59.547Z,9.00
2019-01-13T15:50:29.677Z,8.90
2019-01-13T15:52:58.446Z,8.90
2019-01-13T15:55:27.205Z,9.00
2019-01-13T15:57:55.844Z,8.90
2019-01-13T16:00:32.487Z,8.90
2019-01-13T16:03:01.204Z,9.00
2019-01-13T16:05:29.962Z,8.90
2019-01-13T16:07:58.790Z,9.00
2019-01-13T16:10:27.585Z,9.00
2019-01-13T16:12:56.288Z,9.00
2019-01-13T16:15:25.013Z,8.90
2019-01-13T16:17:53.776Z,8.90
2019-01-13T16:20:25.175Z,8.90
2019-01-13T16:22:54.130Z,8.90
2019-01-13T16:25:22.853Z,8.90
2019-01-13T16:27:51.619Z,8.90
2019-01-13T16:30:22.682Z,9.00
2019-01-13T16:32:51.259Z,9.00
2019-01-13T16:35:19.954Z,9.00
2019-01-13T16:37:48.689Z,8.90
2019-01-13T16:40:19.554Z,9.00
2019-01-13T16:42:48.314Z,8.90
2019-01-13T16:45:17.972Z,8.90
2019-01-13T16:47:47.403Z,9.00
2019-01-13T16:50:18.829Z,9.00
2019-01-13T16:52:50.381Z,9.00
2019-01-13T16:55:19.538Z,9.00
2019-01-13T16:57:48.218Z,8.90
2019-01-13T17:00:22.582Z,8.90
2019-01-13T17:02:51.223Z,8.90
2019-01-13T17:05:21.149Z,8.90
2019-01-13T17:07:49.869Z,8.90
2019-01-13T17:10:20.988Z,8.80
2019-01-13T17:12:49.667Z,8.80
2019-01-13T17:15:20.681Z,8.80
2019-01-13T17:17:49.304Z,8.80
2019-01-13T17:20:22.534Z,8.80
2019-01-13T17:22:51.285Z,8.80
2019-01-13T17:25:25.149Z,8.80
2019-01-13T17:27:53.907Z,8.80
2019-01-13T17:30:27.513Z,8.70
2019-01-13T17:32:56.241Z,8.60
2019-01-13T17:35:25.003Z,8.50
2019-01-13T17:37:53.758Z,8.40
2019-01-13T17:40:24.282Z,8.30
2019-01-13T17:42:53.409Z,8.20
2019-01-13T17:45:24.569Z,8.10
2019-01-13T17:47:53.291Z,8.00
2019-01-13T17:50:23.810Z,7.90
2019-01-13T17:52:52.690Z,7.80
2019-01-13T17:55:23.217Z,7.80
2019-01-13T17:57:52.215Z,7.70
2019-01-13T18:00:32.588Z,7.70
2019-01-13T18:03:04.014Z,7.70
2019-01-13T18:05:32.639Z,7.60
2019-01-13T18:08:01.218Z,7.70
2019-01-13T18:10:29.891Z,7.70
2019-01-13T18:12:58.548Z,7.70
2019-01-13T18:15:27.319Z,7.70
2019-01-13T18:17:56.001Z,7.70
2019-01-13T18:20:24.737Z,7.70
2019-01-13T18:22:53.343Z,7.70
2019-01-13T18:25:22.043Z,7.70
2019-01-13T18:27:50.740Z,7.80
2019-01-13T18:30:27.221Z,7.80
2019-01-13T18:32:55.809Z,7.70
2019-01-13T18:35:24.523Z,7.70
2019-01-13T18:37:53.220Z,7.70
2019-01-13T18:40:23.181Z,7.80
2019-01-13T18:42:51.934Z,7.80
2019-01-13T18:45:20.629Z,7.90
2019-01-13T18:47:49.346Z,7.90
2019-01-13T18:50:22.586Z,7.80
2019-01-13T18:52:54.601Z,7.70
2019-01-13T18:55:23.226Z,7.70
2019-01-13T18:57:51.804Z,7.60
2019-01-13T19:00:24.890Z,7.60
2019-01-13T19:02:53.672Z,7.60
2019-01-13T19:05:25.057Z,7.60
2019-01-13T19:07:53.816Z,7.80
2019-01-13T19:10:40.633Z,7.70
2019-01-13T19:13:15.083Z,7.80
2019-01-13T19:15:44.853Z,7.70
2019-01-13T19:18:13.430Z,7.70
2019-01-13T19:20:42.074Z,7.60
2019-01-13T19:23:10.849Z,7.50
2019-01-13T19:25:39.559Z,7.50
2019-01-13T19:28:08.210Z,7.50
2019-01-13T19:30:36.836Z,7.50
2019-01-13T19:33:05.578Z,7.50
2019-01-13T19:35:34.255Z,7.50
2019-01-13T19:38:02.950Z,7.50
2019-01-13T19:40:31.530Z,7.50
2019-01-13T19:43:00.177Z,7.60
2019-01-13T19:45:29.294Z,7.60
2019-01-13T19:47:58.190Z,7.60
2019-01-13T19:50:26.895Z,7.50
2019-01-13T19:52:55.667Z,7.50
2019-01-13T19:55:24.357Z,7.50
2019-01-13T19:57:53.081Z,7.50
2019-01-13T20:00:24.410Z,7.60
2019-01-13T20:02:53.175Z,7.70
2019-01-13T20:05:22.635Z,7.80
2019-01-13T20:07:51.516Z,7.80
2019-01-13T20:10:20.296Z,7.80
2019-01-13T20:12:48.936Z,7.80
2019-01-13T20:15:19.653Z,7.90
2019-01-13T20:17:48.412Z,8.00
2019-01-13T20:20:19.540Z,8.00
2019-01-13T20:22:48.562Z,7.90
2019-01-13T20:25:18.475Z,7.80
2019-01-13T20:27:47.240Z,7.80
2019-01-13T20:30:18.524Z,7.80
2019-01-13T20:32:47.246Z,7.80
2019-01-13T20:35:19.286Z,7.70
2019-01-13T20:37:46.165Z,7.80
2019-01-13T20:40:16.729Z,7.80
2019-01-13T20:42:45.745Z,7.70
2019-01-13T20:45:26.542Z,7.70
2019-01-13T20:47:55.432Z,7.70
2019-01-13T20:50:24.352Z,7.70
2019-01-13T20:52:53.225Z,7.70
2019-01-13T20:55:22.162Z,7.80
2019-01-13T20:57:51.032Z,7.70
2019-01-13T21:00:22.396Z,7.70
2019-01-13T21:02:51.128Z,7.70
2019-01-13T21:05:26.506Z,7.70
2019-01-13T21:07:50.677Z,7.70
2019-01-13T21:10:20.097Z,7.80
2019-01-13T21:12:48.988Z,7.70
2019-01-13T21:15:21.206Z,7.70
2019-01-13T21:17:57.207Z,7.70
2019-01-13T21:20:20.930Z,7.50
2019-01-13T21:22:49.719Z,7.50
2019-01-13T21:25:18.924Z,7.50
2019-01-13T21:27:47.648Z,7.50
2019-01-13T21:30:19.375Z,7.50
2019-01-13T21:32:47.952Z,7.50
2019-01-13T21:35:17.072Z,7.50
2019-01-13T21:37:45.770Z,7.60
2019-01-13T21:40:15.828Z,7.40
2019-01-13T21:42:44.502Z,7.40
2019-01-13T21:45:19.461Z,7.40
2019-01-13T21:47:48.238Z,7.40
2019-01-13T21:50:22.277Z,7.40
2019-01-13T21:52:50.992Z,7.40
2019-01-13T21:55:20.169Z,7.50
2019-01-13T21:57:48.885Z,7.50
2019-01-13T22:00:23.374Z,7.40
2019-01-13T22:02:52.129Z,7.40
2019-01-13T22:05:20.771Z,7.40
2019-01-13T22:10:57.072Z,7.30
2019-01-13T22:13:25.834Z,7.30
2019-01-13T22:15:54.752Z,7.30
2019-01-13T22:18:23.673Z,7.40
2019-01-13T22:20:52.538Z,7.30
2019-01-13T22:23:21.129Z,7.40
2019-01-13T22:25:49.826Z,7.40
2019-01-13T22:28:18.433Z,7.30
2019-01-13T22:30:48.000Z,7.20
2019-01-13T22:33:16.814Z,7.20
2019-01-13T22:35:48.216Z,7.20
2019-01-13T22:38:15.678Z,7.20
2019-01-13T22:40:44.296Z,7.10
2019-01-13T22:43:12.883Z,7.10
2019-01-13T22:45:41.510Z,7.10
2019-01-13T22:48:10.165Z,7.10
2019-01-13T22:50:38.796Z,7.00
2019-01-13T22:53:07.453Z,6.90
2019-01-13T22:55:36.105Z,6.80
2019-01-13T22:58:04.872Z,6.80
2019-01-13T23:00:50.156Z,6.70
2019-01-13T23:03:19.688Z,6.70
2019-01-13T23:05:55.402Z,6.60
2019-01-13T23:08:18.686Z,6.60
2019-01-13T23:10:47.445Z,6.60
2019-01-13T23:13:16.029Z,6.60
2019-01-13T23:15:44.717Z,6.70
2019-01-13T23:18:13.297Z,6.70
2019-01-13T23:20:42.002Z,6.80
2019-01-13T23:23:10.631Z,6.80
2019-01-13T23:25:39.548Z,6.80
2019-01-13T23:28:08.169Z,6.80
2019-01-13T23:30:36.858Z,6.80
2019-01-13T23:33:05.551Z,6.80
2019-01-13T23:35:34.207Z,6.70
2019-01-13T23:38:02.787Z,6.80
2019-01-13T23:40:31.417Z,6.80
2019-01-13T23:42:59.989Z,6.80
2019-01-13T23:45:28.681Z,6.80
2019-01-13T23:47:57.319Z,6.90
2019-01-13T23:50:25.942Z,6.90
2019-01-13T23:52:54.594Z,6.90
2019-01-13T23:55:23.277Z,6.90
2019-01-13T23:57:51.909Z,6.90
